ニューヨーク/JFK の空港の天気 - METARとTAF

ジョン・F・ケネディ国際空港 ( KJFK / JFK ) - アメリカ ニューヨーク州ニューヨーク
飛行場実況気象(Metar)
観測時間02/01 04:51 EST (02/01 09:51 UTC)
風向・風速北北東 7m/s
視程8050m
天気現象弱い雪
全天の8割程度の雲 雲底高度 1010m
全天を覆う雲 雲底高度 2740m
気温-2.2℃
湿度81%
気圧1023.9hPa
METARKJFK 010951Z 03013KT 5SM -SN BKN033 OVC090 M02/M05 A3024 RMK AO2 SLP239 P0000 T10221050
過去の天気等 Google飛行場航空写真 Wunderground天気予報

過去48時間のMETAR

飛行場予報(TAF)
発表時間: 2/01 03:30 EST (2/01 08:30 UTC)
予報対象時間: 1日4時 EST ~ 2日7時 EST
風向・風速北北東 4m/s
視程10km以上
全天の8割程度の雲 雲底高度 1070m
1日4時 EST ~ 1日8時 EST に一時的に
視程4830m
天気現象弱い雪
全天の4割程度の雲 雲底高度 460m
全天を覆う雲 雲底高度 760m
1日8時 EST から
風向・風速北北西 5m/s
視程10km以上
全天の4割程度の雲 雲底高度 1070m
全天の8割程度の雲 雲底高度 7620m
1日12時 EST から
風向・風速北西 6m/s
視程10km以上
全天の4割程度の雲 雲底高度 1370m
2日0時 EST から
風向・風速西北西 2m/s
視程10km以上
少しの雲 雲底高度 7620m
KJFK 010830Z 0109/0212 02008KT P6SM BKN035
TEMPO 0109/0113 3SM -SN SCT015 OVC025
FM011300 33010KT P6SM SCT035 BKN250
FM011700 31011KT P6SM SCT045
FM020500 30004KT P6SM FEW250